createdAt,value
2022-09-12T00:01:55.768Z,14.95
2022-09-12T00:04:22.679Z,14.98
2022-09-12T00:06:49.573Z,14.91
2022-09-12T00:09:16.580Z,14.90
2022-09-12T00:11:45.768Z,14.82
2022-09-12T00:14:15.680Z,14.86
2022-09-12T00:16:42.666Z,14.90
2022-09-12T00:19:10.429Z,14.86
2022-09-12T00:21:38.923Z,14.82
2022-09-12T00:24:06.186Z,14.83
2022-09-12T00:26:33.093Z,14.74
2022-09-12T00:29:00.122Z,14.72
2022-09-12T00:31:27.275Z,14.69
2022-09-12T00:33:56.637Z,14.70
2022-09-12T00:36:25.018Z,14.63
2022-09-12T00:38:52.571Z,14.68
2022-09-12T00:41:39.576Z,14.67
2022-09-12T00:44:12.536Z,14.70
2022-09-12T00:46:41.913Z,14.72
2022-09-12T00:49:31.779Z,14.65
2022-09-12T00:52:32.900Z,14.63
2022-09-12T00:55:11.080Z,14.65
2022-09-12T00:57:45.472Z,14.70
2022-09-12T01:00:15.815Z,14.75
2022-09-12T01:02:53.015Z,14.81
2022-09-12T01:05:20.884Z,14.81
2022-09-12T01:07:50.097Z,14.86
2022-09-12T01:10:17.695Z,14.89
2022-09-12T01:12:44.802Z,14.85
2022-09-12T01:15:12.073Z,14.98
2022-09-12T01:18:08.150Z,14.90
2022-09-12T01:21:05.937Z,14.87
2022-09-12T01:23:51.234Z,14.89
2022-09-12T01:26:48.641Z,14.99
2022-09-12T01:29:43.485Z,15.08
2022-09-12T01:32:10.320Z,14.99
2022-09-12T01:35:16.763Z,15.04
2022-09-12T01:38:17.098Z,15.02
2022-09-12T01:41:13.318Z,15.07
2022-09-12T01:44:06.851Z,15.05
2022-09-12T01:46:44.927Z,15.06
2022-09-12T01:49:22.734Z,14.98
2022-09-12T01:52:18.497Z,14.91
2022-09-12T01:54:51.683Z,14.88
2022-09-12T01:57:27.770Z,14.80
2022-09-12T01:59:57.714Z,14.75
2022-09-12T02:02:33.331Z,14.78
2022-09-12T02:05:10.740Z,14.79
2022-09-12T02:07:40.330Z,14.73
2022-09-12T02:10:13.634Z,14.75
2022-09-12T02:12:46.761Z,14.70
2022-09-12T02:15:15.491Z,14.58
2022-09-12T02:17:44.583Z,14.69
2022-09-12T02:20:46.815Z,14.71
2022-09-12T02:23:17.754Z,14.74
2022-09-12T02:25:47.050Z,14.74
2022-09-12T02:28:34.824Z,14.71
2022-09-12T02:31:28.538Z,14.72
2022-09-12T02:33:55.296Z,14.77
2022-09-12T02:36:34.730Z,14.81
2022-09-12T02:39:01.677Z,14.79
2022-09-12T02:41:28.622Z,14.83
2022-09-12T02:43:55.890Z,14.83
2022-09-12T02:46:27.883Z,14.73
2022-09-12T02:48:55.469Z,14.66
2022-09-12T02:51:23.850Z,14.60
2022-09-12T02:53:51.115Z,14.56
2022-09-12T02:56:24.876Z,14.58
2022-09-12T02:58:52.125Z,14.53
2022-09-12T03:01:43.673Z,14.49
2022-09-12T03:04:31.920Z,14.46
2022-09-12T03:07:10.312Z,14.45
2022-09-12T03:09:45.681Z,14.43
2022-09-12T03:12:34.416Z,14.40
2022-09-12T03:15:27.310Z,14.35
2022-09-12T03:18:02.208Z,14.39
2022-09-12T03:20:58.156Z,14.33
2022-09-12T03:23:46.634Z,14.35
2022-09-12T03:26:17.214Z,14.31
2022-09-12T03:28:45.493Z,14.32
2022-09-12T03:31:14.871Z,14.34
2022-09-12T03:33:41.981Z,14.33
2022-09-12T03:36:20.190Z,14.31
2022-09-12T03:38:47.088Z,14.35
2022-09-12T03:41:14.234Z,14.39
2022-09-12T03:43:41.227Z,14.38
2022-09-12T03:46:08.416Z,14.39
2022-09-12T03:48:35.722Z,14.43
2022-09-12T03:51:07.591Z,14.47
2022-09-12T03:53:34.482Z,14.44
2022-09-12T03:56:06.289Z,14.46
2022-09-12T03:58:33.930Z,14.41
2022-09-12T04:01:00.811Z,14.39
2022-09-12T04:03:27.702Z,14.38
2022-09-12T04:05:57.345Z,14.36
2022-09-12T04:08:24.203Z,14.36
2022-09-12T04:10:50.982Z,14.35
2022-09-12T04:13:17.782Z,14.35
2022-09-12T04:15:44.562Z,14.38
2022-09-12T04:18:11.640Z,14.34
2022-09-12T04:20:40.252Z,14.34
2022-09-12T04:23:07.412Z,14.34
2022-09-12T04:25:34.494Z,14.33
2022-09-12T04:28:01.599Z,14.34
2022-09-12T04:30:28.506Z,14.36
2022-09-12T04:32:55.409Z,14.37
2022-09-12T04:35:22.252Z,14.34
2022-09-12T04:37:49.222Z,14.38
2022-09-12T04:40:16.106Z,14.37
2022-09-12T04:42:42.890Z,14.38
2022-09-12T04:45:10.003Z,14.41
2022-09-12T04:47:36.896Z,14.38
2022-09-12T04:50:04.250Z,14.39
2022-09-12T04:52:31.165Z,14.49
2022-09-12T04:54:58.025Z,14.60
2022-09-12T04:57:25.927Z,14.74
2022-09-12T04:59:52.859Z,14.84
2022-09-12T05:02:19.774Z,15.25
2022-09-12T05:04:46.961Z,15.45
2022-09-12T05:07:13.787Z,15.37
2022-09-12T05:09:41.627Z,15.51
2022-09-12T05:12:09.465Z,15.71
2022-09-12T05:14:36.403Z,16.01
2022-09-12T05:17:04.356Z,16.94
2022-09-12T05:19:31.922Z,17.61
2022-09-12T05:21:59.626Z,17.51
2022-09-12T05:24:26.461Z,17.92
2022-09-12T05:26:53.402Z,17.89
2022-09-12T05:29:20.329Z,17.53
2022-09-12T05:31:52.285Z,17.41
2022-09-12T05:34:20.064Z,17.22
2022-09-12T05:36:46.993Z,17.30
2022-09-12T05:39:13.878Z,17.06
2022-09-12T05:41:40.885Z,16.99
2022-09-12T05:44:12.009Z,17.05
2022-09-12T05:46:41.856Z,17.03
2022-09-12T05:49:11.459Z,17.09
2022-09-12T05:51:41.459Z,17.13
2022-09-12T05:54:10.792Z,17.16
2022-09-12T05:56:39.815Z,17.20
2022-09-12T05:59:12.405Z,17.37
2022-09-12T06:01:39.963Z,17.38
2022-09-12T06:04:07.907Z,17.29
2022-09-12T06:06:45.023Z,17.48
2022-09-12T06:09:13.838Z,17.76
2022-09-12T06:11:41.246Z,17.60
2022-09-12T06:14:10.017Z,17.70
2022-09-12T06:16:37.785Z,17.96
2022-09-12T06:19:08.285Z,18.07
2022-09-12T06:21:39.994Z,18.08
2022-09-12T06:24:07.673Z,18.00
2022-09-12T06:26:34.691Z,18.03
2022-09-12T06:29:02.316Z,18.19
2022-09-12T06:31:32.057Z,18.15
2022-09-12T06:34:01.748Z,18.36
2022-09-12T06:36:33.731Z,18.49
2022-09-12T06:39:10.980Z,18.51
2022-09-12T06:41:42.969Z,18.46
2022-09-12T06:44:21.669Z,18.59
2022-09-12T06:46:49.155Z,18.74
2022-09-12T06:49:17.635Z,18.59
2022-09-12T06:51:44.723Z,18.80
2022-09-12T06:54:15.694Z,18.77
2022-09-12T06:56:43.053Z,18.84
2022-09-12T06:59:10.079Z,18.80
2022-09-12T07:01:37.175Z,18.69
2022-09-12T07:04:04.569Z,18.75
2022-09-12T07:06:36.495Z,18.89
2022-09-12T07:09:05.569Z,19.22
2022-09-12T07:11:34.466Z,19.03
2022-09-12T07:14:03.114Z,19.22
2022-09-12T07:16:30.551Z,19.48
2022-09-12T07:18:59.608Z,19.36
2022-09-12T07:21:27.392Z,19.83
2022-09-12T07:23:58.083Z,19.35
2022-09-12T07:26:29.711Z,19.66
2022-09-12T07:29:25.115Z,20.00
2022-09-12T07:31:48.292Z,19.88
2022-09-12T07:34:15.232Z,19.64
2022-09-12T07:36:42.034Z,20.17
2022-09-12T07:39:09.699Z,20.18
2022-09-12T07:41:36.594Z,20.18
2022-09-12T07:44:06.632Z,20.30
2022-09-12T07:46:33.894Z,20.55
2022-09-12T07:49:01.553Z,20.56
2022-09-12T07:51:30.000Z,20.48
2022-09-12T07:53:57.325Z,20.66
2022-09-12T07:56:30.151Z,20.44
2022-09-12T07:58:58.775Z,20.11
2022-09-12T08:01:26.102Z,20.40
2022-09-12T08:03:57.971Z,20.74
2022-09-12T08:06:26.540Z,21.02
2022-09-12T08:08:55.878Z,21.21
2022-09-12T08:11:23.990Z,21.21
2022-09-12T08:13:55.429Z,21.10
2022-09-12T08:16:24.330Z,20.76
2022-09-12T08:18:51.311Z,21.16
2022-09-12T08:21:21.340Z,21.27
2022-09-12T08:23:52.748Z,21.38
2022-09-12T08:28:46.830Z,21.38
2022-09-12T08:31:15.947Z,21.41
2022-09-12T08:33:43.051Z,21.66
2022-09-12T08:36:14.191Z,21.73
2022-09-12T08:38:43.021Z,21.65
2022-09-12T08:41:18.869Z,21.87
2022-09-12T08:43:57.920Z,21.38
2022-09-12T08:46:31.659Z,21.25
2022-09-12T08:49:01.300Z,21.32
2022-09-12T08:51:29.416Z,21.38
2022-09-12T08:53:57.441Z,21.52
2022-09-12T08:56:31.461Z,21.52
2022-09-12T08:58:59.361Z,21.90
2022-09-12T09:01:45.744Z,22.14
2022-09-12T09:04:33.308Z,22.23
2022-09-12T09:07:06.197Z,22.25
2022-09-12T09:10:27.242Z,21.44
2022-09-12T09:13:06.522Z,22.13
2022-09-12T09:15:40.705Z,22.14
2022-09-12T09:18:12.004Z,21.89
2022-09-12T09:20:41.902Z,22.11
2022-09-12T09:23:17.347Z,22.09
2022-09-12T09:26:16.080Z,22.39
2022-09-12T09:28:47.430Z,22.40
2022-09-12T09:31:19.398Z,22.82
2022-09-12T09:33:48.338Z,22.26
2022-09-12T09:36:28.849Z,22.61
2022-09-12T09:39:11.652Z,22.31
2022-09-12T09:41:59.968Z,22.87
2022-09-12T09:44:29.613Z,22.87
2022-09-12T09:46:59.953Z,22.53
2022-09-12T09:49:32.308Z,23.01
2022-09-12T09:52:01.010Z,23.24
2022-09-12T09:54:38.080Z,23.37
2022-09-12T09:57:05.193Z,23.46
2022-09-12T09:59:36.266Z,24.12
2022-09-12T10:02:15.009Z,23.98
2022-09-12T10:04:53.913Z,24.08
2022-09-12T10:07:21.867Z,23.76
2022-09-12T10:10:16.076Z,24.07
2022-09-12T10:12:43.105Z,23.74
2022-09-12T10:15:30.582Z,23.38
2022-09-12T10:17:58.901Z,23.81
2022-09-12T10:20:34.884Z,23.51
2022-09-12T10:23:37.731Z,22.77
2022-09-12T10:26:10.572Z,23.05
2022-09-12T10:28:39.378Z,22.81
2022-09-12T10:31:07.724Z,22.49
2022-09-12T10:33:42.551Z,22.45
2022-09-12T10:36:09.549Z,22.25
2022-09-12T10:38:36.843Z,23.21
2022-09-12T10:41:06.787Z,23.50
2022-09-12T10:43:33.589Z,23.55
2022-09-12T10:46:15.963Z,23.57
2022-09-12T10:48:47.613Z,23.15
2022-09-12T10:51:23.709Z,23.06
2022-09-12T10:54:02.498Z,22.80
2022-09-12T10:56:35.215Z,23.04
2022-09-12T10:59:30.223Z,23.28
2022-09-12T11:02:01.989Z,22.74
2022-09-12T11:04:37.703Z,22.49
2022-09-12T11:07:22.873Z,22.86
2022-09-12T11:10:14.815Z,22.09
2022-09-12T11:12:51.568Z,22.03
2022-09-12T11:15:37.058Z,21.50
2022-09-12T11:18:34.926Z,21.56
2022-09-12T11:21:19.073Z,21.32
2022-09-12T11:24:23.267Z,20.91
2022-09-12T11:27:21.578Z,20.69
2022-09-12T11:29:49.575Z,20.55
2022-09-12T11:32:31.888Z,20.40
2022-09-12T11:35:15.179Z,20.29
2022-09-12T11:37:55.291Z,20.24
2022-09-12T11:40:50.256Z,20.07
2022-09-12T11:43:29.219Z,20.05
2022-09-12T11:45:57.601Z,19.96
2022-09-12T11:48:48.991Z,19.83
2022-09-12T11:51:28.012Z,19.93
2022-09-12T11:54:02.035Z,20.16
2022-09-12T11:56:28.857Z,20.25
2022-09-12T11:59:10.005Z,20.31
2022-09-12T12:01:43.954Z,20.51
2022-09-12T12:04:18.215Z,20.66
2022-09-12T12:07:01.082Z,20.99
2022-09-12T12:09:27.826Z,21.16
2022-09-12T12:11:57.896Z,21.22
2022-09-12T12:14:29.620Z,21.57
2022-09-12T12:16:57.209Z,21.73
2022-09-12T12:19:34.303Z,21.85
2022-09-12T12:22:17.371Z,22.11
2022-09-12T12:25:13.351Z,22.11
2022-09-12T12:27:59.137Z,22.25
2022-09-12T12:30:33.442Z,22.34
2022-09-12T12:33:01.140Z,22.19
2022-09-12T12:36:04.435Z,22.20
2022-09-12T12:38:43.292Z,22.53
2022-09-12T12:41:19.415Z,22.71
2022-09-12T12:43:48.227Z,22.70
2022-09-12T12:46:17.094Z,23.12
2022-09-12T12:49:10.389Z,22.95
2022-09-12T12:51:53.613Z,23.09
2022-09-12T12:54:27.701Z,23.00
2022-09-12T12:57:29.880Z,23.06
2022-09-12T13:00:05.186Z,23.08
2022-09-12T13:02:41.829Z,23.08
2022-09-12T13:05:28.249Z,22.95
2022-09-12T13:08:07.057Z,22.55
2022-09-12T13:10:34.584Z,22.92
2022-09-12T13:13:05.238Z,22.71
2022-09-12T13:15:38.289Z,22.45
2022-09-12T13:18:11.727Z,21.87
2022-09-12T13:20:47.404Z,21.76
2022-09-12T13:23:25.765Z,21.63
2022-09-12T13:25:55.137Z,21.57
2022-09-12T13:28:22.099Z,21.36
2022-09-12T13:30:59.011Z,21.24
2022-09-12T13:33:52.327Z,21.25
2022-09-12T13:36:48.601Z,21.11
2022-09-12T13:39:18.398Z,21.02
2022-09-12T13:41:52.676Z,21.06
2022-09-12T13:44:21.948Z,21.03
2022-09-12T13:46:49.270Z,20.86
2022-09-12T13:49:32.899Z,20.88
2022-09-12T13:52:15.508Z,21.12
2022-09-12T13:54:48.027Z,21.25
2022-09-12T13:57:41.430Z,21.48
2022-09-12T14:00:16.182Z,21.47
2022-09-12T14:02:43.095Z,21.70
2022-09-12T14:05:27.810Z,21.75
2022-09-12T14:08:00.245Z,21.57
2022-09-12T14:10:34.089Z,21.69
2022-09-12T14:13:03.352Z,21.77
2022-09-12T14:15:32.912Z,21.80
2022-09-12T14:18:01.819Z,21.86
2022-09-12T14:20:36.258Z,21.82
2022-09-12T14:23:07.318Z,21.99
2022-09-12T14:25:41.386Z,21.96
2022-09-12T14:28:13.263Z,21.96
2022-09-12T14:30:40.832Z,21.85
2022-09-12T14:33:10.761Z,21.82
2022-09-12T14:35:43.691Z,21.65
2022-09-12T14:38:19.933Z,21.82
2022-09-12T14:40:48.842Z,21.79
2022-09-12T14:43:26.025Z,21.72
2022-09-12T14:45:59.760Z,21.79
2022-09-12T14:48:28.618Z,21.73
2022-09-12T14:50:55.523Z,21.74
2022-09-12T14:53:37.454Z,21.75
2022-09-12T14:56:10.529Z,21.74
2022-09-12T14:58:41.556Z,21.78
2022-09-12T15:01:08.523Z,21.71
2022-09-12T15:03:52.100Z,21.68
2022-09-12T15:06:30.847Z,21.60
2022-09-12T15:09:14.449Z,21.52
2022-09-12T15:11:41.299Z,21.45
2022-09-12T15:14:14.557Z,21.45
2022-09-12T15:16:41.687Z,21.41
2022-09-12T15:19:08.564Z,21.30
2022-09-12T15:21:35.405Z,21.32
2022-09-12T15:24:02.453Z,21.30
2022-09-12T15:26:31.587Z,21.25
2022-09-12T15:28:58.513Z,21.17
2022-09-12T15:31:27.991Z,21.13
2022-09-12T15:33:55.710Z,21.09
2022-09-12T15:36:23.553Z,21.08
2022-09-12T15:38:51.504Z,21.08
2022-09-12T15:41:23.924Z,21.05
2022-09-12T15:43:51.056Z,21.02
2022-09-12T15:46:19.085Z,20.96
2022-09-12T15:48:46.028Z,20.85
2022-09-12T15:51:15.803Z,20.72
2022-09-12T15:53:43.299Z,20.62
2022-09-12T15:56:10.148Z,20.59
2022-09-12T15:58:49.753Z,20.57
2022-09-12T16:01:24.527Z,20.52
2022-09-12T16:03:51.535Z,20.42
2022-09-12T16:06:18.405Z,20.33
2022-09-12T16:08:45.342Z,20.26
2022-09-12T16:11:30.173Z,20.23
2022-09-12T16:13:56.989Z,20.15
2022-09-12T16:16:24.210Z,20.09
2022-09-12T16:18:51.294Z,19.99
2022-09-12T16:21:18.286Z,19.96
2022-09-12T16:23:46.097Z,19.91
2022-09-12T16:26:13.578Z,19.87
2022-09-12T16:28:41.592Z,19.81
2022-09-12T16:31:18.015Z,19.80
2022-09-12T16:33:45.895Z,19.74
2022-09-12T16:36:16.482Z,19.67
2022-09-12T16:38:46.092Z,19.60
2022-09-12T16:41:13.504Z,19.52
2022-09-12T16:43:43.093Z,19.47
2022-09-12T16:46:17.349Z,19.38
2022-09-12T16:48:51.572Z,19.27
2022-09-12T16:51:21.217Z,19.25
2022-09-12T16:54:08.787Z,19.14
2022-09-12T16:56:39.612Z,19.09
2022-09-12T16:59:07.500Z,19.03
2022-09-12T17:01:35.400Z,18.97
2022-09-12T17:04:03.430Z,18.92
2022-09-12T17:06:33.047Z,18.80
2022-09-12T17:09:03.955Z,18.60
2022-09-12T17:11:33.855Z,18.49
2022-09-12T17:14:06.420Z,18.38
2022-09-12T17:16:35.862Z,18.27
2022-09-12T17:19:02.722Z,18.21
2022-09-12T17:21:29.661Z,18.12
2022-09-12T17:24:18.538Z,18.13
2022-09-12T17:26:53.751Z,17.89
2022-09-12T17:29:21.434Z,17.66
2022-09-12T17:31:48.834Z,17.44
2022-09-12T17:34:16.449Z,17.34
2022-09-12T17:36:44.613Z,17.21
2022-09-12T17:39:14.391Z,17.13
2022-09-12T17:41:42.647Z,17.12
2022-09-12T17:44:11.885Z,16.98
2022-09-12T17:46:39.402Z,16.85
2022-09-12T17:49:12.690Z,16.76
2022-09-12T17:51:40.554Z,16.63
2022-09-12T17:54:18.273Z,16.53
2022-09-12T17:56:50.040Z,16.22
2022-09-12T17:59:22.013Z,15.92
2022-09-12T18:02:31.272Z,15.70
2022-09-12T18:05:00.353Z,15.65
2022-09-12T18:07:27.221Z,15.70
2022-09-12T18:09:54.140Z,15.75
2022-09-12T18:12:21.045Z,15.84
2022-09-12T18:14:47.897Z,15.79
2022-09-12T18:17:14.744Z,15.79
2022-09-12T18:19:41.561Z,15.90
2022-09-12T18:22:09.469Z,16.00
2022-09-12T18:24:36.353Z,15.99
2022-09-12T18:27:03.982Z,16.21
2022-09-12T18:29:31.336Z,16.13
2022-09-12T18:31:58.199Z,16.13
2022-09-12T18:34:25.146Z,16.14
2022-09-12T18:36:54.903Z,16.11
2022-09-12T18:39:25.333Z,16.11
2022-09-12T18:41:54.536Z,16.13
2022-09-12T18:44:21.339Z,16.04
2022-09-12T18:46:48.200Z,16.01
2022-09-12T18:49:15.496Z,15.94
2022-09-12T18:51:42.358Z,15.80
2022-09-12T18:54:13.769Z,15.83
2022-09-12T18:56:43.579Z,15.77
2022-09-12T18:59:12.822Z,15.71
2022-09-12T19:01:39.948Z,15.65
2022-09-12T19:04:08.964Z,15.61
2022-09-12T19:06:38.681Z,15.51
2022-09-12T19:09:08.470Z,15.47
2022-09-12T19:11:39.027Z,15.32
2022-09-12T19:14:07.846Z,15.25
2022-09-12T19:16:35.356Z,15.18
2022-09-12T19:19:03.127Z,15.17
2022-09-12T19:21:31.622Z,15.16
2022-09-12T19:24:06.783Z,15.12
2022-09-12T19:26:35.903Z,15.07
2022-09-12T19:29:04.192Z,15.03
2022-09-12T19:31:33.915Z,15.01
2022-09-12T19:34:03.816Z,15.03
2022-09-12T19:36:47.857Z,15.02
2022-09-12T19:39:17.004Z,14.90
2022-09-12T19:41:45.143Z,14.84
2022-09-12T19:44:12.922Z,14.69
2022-09-12T19:46:40.782Z,14.32
2022-09-12T19:49:07.913Z,14.02
2022-09-12T19:51:34.843Z,13.90
2022-09-12T19:54:01.853Z,13.99
2022-09-12T19:56:29.430Z,13.99
2022-09-12T19:58:56.914Z,14.00
2022-09-12T20:01:28.177Z,13.94
2022-09-12T20:03:56.428Z,13.93
2022-09-12T20:06:24.268Z,13.93
2022-09-12T20:08:51.471Z,13.91
2022-09-12T20:11:20.450Z,13.81
2022-09-12T20:13:49.229Z,13.90
2022-09-12T20:16:23.338Z,13.83
2022-09-12T20:18:56.897Z,13.83
2022-09-12T20:21:31.891Z,13.83
2022-09-12T20:24:03.440Z,13.80
2022-09-12T20:26:30.927Z,13.77
2022-09-12T20:28:57.830Z,13.78
2022-09-12T20:31:25.267Z,13.83
2022-09-12T20:33:52.303Z,13.88
2022-09-12T20:36:21.771Z,13.91
2022-09-12T20:38:53.974Z,13.92
2022-09-12T20:41:21.308Z,13.81
2022-09-12T20:43:52.783Z,13.90
2022-09-12T20:46:22.227Z,13.93
2022-09-12T20:48:50.709Z,13.89
2022-09-12T20:51:20.246Z,13.96
2022-09-12T20:53:48.722Z,13.91
2022-09-12T20:56:15.863Z,13.82
2022-09-12T20:58:44.251Z,13.76
2022-09-12T21:01:13.413Z,13.74
2022-09-12T21:03:41.556Z,13.68
2022-09-12T21:06:09.640Z,13.57
2022-09-12T21:08:37.345Z,13.34
2022-09-12T21:11:04.905Z,13.25
2022-09-12T21:13:32.188Z,13.19
2022-09-12T21:16:04.428Z,13.22
2022-09-12T21:18:31.922Z,13.20
2022-09-12T21:20:58.757Z,13.24
2022-09-12T21:23:26.152Z,13.22
2022-09-12T21:25:53.126Z,13.11
2022-09-12T21:28:20.924Z,13.14
2022-09-12T21:30:48.726Z,13.13
2022-09-12T21:33:15.978Z,12.77
2022-09-12T21:35:42.850Z,12.63
2022-09-12T21:38:09.655Z,12.77
2022-09-12T21:40:36.541Z,12.75
2022-09-12T21:43:04.104Z,12.73
2022-09-12T21:45:30.943Z,12.79
2022-09-12T21:47:57.988Z,12.76
2022-09-12T21:50:24.972Z,12.77
2022-09-12T21:52:53.844Z,12.74
2022-09-12T21:55:20.753Z,12.70
2022-09-12T21:57:47.682Z,12.72
2022-09-12T22:00:18.142Z,12.64
2022-09-12T22:02:46.435Z,12.43
2022-09-12T22:05:13.872Z,12.21
2022-09-12T22:07:40.850Z,12.33
2022-09-12T22:10:08.083Z,12.33
2022-09-12T22:12:34.874Z,12.31
2022-09-12T22:15:12.778Z,12.19
2022-09-12T22:17:48.524Z,12.25
2022-09-12T22:20:15.365Z,12.09
2022-09-12T22:23:00.753Z,12.12
2022-09-12T22:25:27.663Z,12.03
2022-09-12T22:27:55.007Z,12.00
2022-09-12T22:30:22.694Z,12.12
2022-09-12T22:32:51.079Z,12.06
2022-09-12T22:35:19.162Z,12.07
2022-09-12T22:37:46.768Z,12.09
2022-09-12T22:40:14.137Z,12.06
2022-09-12T22:42:40.908Z,12.05
2022-09-12T22:45:08.325Z,11.96
2022-09-12T22:47:35.471Z,11.87
2022-09-12T22:50:02.954Z,11.93
2022-09-12T22:52:29.758Z,11.88
2022-09-12T22:54:57.249Z,11.75
2022-09-12T22:57:24.116Z,11.83
2022-09-12T22:59:50.939Z,11.83
2022-09-12T23:02:17.818Z,11.81
2022-09-12T23:04:46.675Z,11.85
2022-09-12T23:07:13.574Z,11.85
2022-09-12T23:09:40.503Z,11.82
2022-09-12T23:12:07.391Z,11.78
2022-09-12T23:14:34.274Z,11.81
2022-09-12T23:17:01.161Z,11.80
2022-09-12T23:19:28.115Z,11.65
2022-09-12T23:21:54.883Z,11.64
2022-09-12T23:24:24.976Z,11.55
2022-09-12T23:26:51.807Z,11.07
2022-09-12T23:29:18.652Z,10.96
2022-09-12T23:31:45.437Z,10.93
2022-09-12T23:34:12.276Z,10.76
2022-09-12T23:36:39.055Z,10.74
2022-09-12T23:39:06.104Z,10.76
2022-09-12T23:41:33.198Z,10.81
2022-09-12T23:44:00.371Z,10.81
2022-09-12T23:46:27.282Z,10.92
2022-09-12T23:48:54.657Z,10.93
2022-09-12T23:51:24.419Z,10.89
2022-09-12T23:53:51.271Z,10.84
2022-09-12T23:56:18.091Z,10.86
2022-09-12T23:58:44.961Z,10.87
